sensor_id;sensor_type;location;lat;lon;timestamp;temperature;humidity
7998;DHT22;4044;49.814;7.828;2023-06-14T00:00:14;13.90;76.50
7998;DHT22;4044;49.814;7.828;2023-06-14T00:02:40;13.80;77.00
7998;DHT22;4044;49.814;7.828;2023-06-14T00:05:07;13.80;76.80
7998;DHT22;4044;49.814;7.828;2023-06-14T00:07:40;13.80;77.50
7998;DHT22;4044;49.814;7.828;2023-06-14T00:10:10;13.80;77.30
7998;DHT22;4044;49.814;7.828;2023-06-14T00:12:36;13.70;78.00
7998;DHT22;4044;49.814;7.828;2023-06-14T00:15:01;13.70;77.90
7998;DHT22;4044;49.814;7.828;2023-06-14T00:17:27;13.60;77.00
7998;DHT22;4044;49.814;7.828;2023-06-14T00:19:57;13.50;77.80
7998;DHT22;4044;49.814;7.828;2023-06-14T00:22:23;13.40;77.80
7998;DHT22;4044;49.814;7.828;2023-06-14T00:24:52;13.40;78.80
7998;DHT22;4044;49.814;7.828;2023-06-14T00:27:17;13.30;77.70
7998;DHT22;4044;49.814;7.828;2023-06-14T00:29:43;13.30;78.60
7998;DHT22;4044;49.814;7.828;2023-06-14T00:32:08;13.30;79.30
7998;DHT22;4044;49.814;7.828;2023-06-14T00:34:34;13.20;78.40
7998;DHT22;4044;49.814;7.828;2023-06-14T00:37:00;13.20;78.70
7998;DHT22;4044;49.814;7.828;2023-06-14T00:39:25;13.20;78.80
7998;DHT22;4044;49.814;7.828;2023-06-14T00:41:51;13.10;81.30
7998;DHT22;4044;49.814;7.828;2023-06-14T00:44:17;13.10;79.10
7998;DHT22;4044;49.814;7.828;2023-06-14T00:46:44;13.00;79.80
7998;DHT22;4044;49.814;7.828;2023-06-14T00:49:11;13.00;80.30
7998;DHT22;4044;49.814;7.828;2023-06-14T00:51:37;12.90;81.90
7998;DHT22;4044;49.814;7.828;2023-06-14T00:54:03;12.80;80.70
7998;DHT22;4044;49.814;7.828;2023-06-14T00:56:29;12.70;80.20
7998;DHT22;4044;49.814;7.828;2023-06-14T00:58:56;12.70;80.70
7998;DHT22;4044;49.814;7.828;2023-06-14T01:01:21;12.70;82.40
7998;DHT22;4044;49.814;7.828;2023-06-14T01:03:47;12.60;81.40
7998;DHT22;4044;49.814;7.828;2023-06-14T01:09:28;12.70;81.30
7998;DHT22;4044;49.814;7.828;2023-06-14T01:12:07;12.60;82.10
7998;DHT22;4044;49.814;7.828;2023-06-14T01:14:38;12.60;81.20
7998;DHT22;4044;49.814;7.828;2023-06-14T01:17:04;12.50;80.80
7998;DHT22;4044;49.814;7.828;2023-06-14T01:19:30;12.50;81.20
7998;DHT22;4044;49.814;7.828;2023-06-14T01:22:00;12.50;82.20
7998;DHT22;4044;49.814;7.828;2023-06-14T01:24:26;12.50;82.20
7998;DHT22;4044;49.814;7.828;2023-06-14T01:26:55;12.50;82.00
7998;DHT22;4044;49.814;7.828;2023-06-14T01:29:23;12.40;81.70
7998;DHT22;4044;49.814;7.828;2023-06-14T01:31:50;12.40;82.20
7998;DHT22;4044;49.814;7.828;2023-06-14T01:34:16;12.40;82.90
7998;DHT22;4044;49.814;7.828;2023-06-14T01:36:43;12.40;83.30
7998;DHT22;4044;49.814;7.828;2023-06-14T01:39:12;12.30;83.00
7998;DHT22;4044;49.814;7.828;2023-06-14T01:41:39;12.30;83.90
7998;DHT22;4044;49.814;7.828;2023-06-14T01:44:06;12.30;83.60
7998;DHT22;4044;49.814;7.828;2023-06-14T01:46:31;12.20;83.50
7998;DHT22;4044;49.814;7.828;2023-06-14T01:48:57;12.20;82.90
7998;DHT22;4044;49.814;7.828;2023-06-14T01:51:23;12.10;82.80
7998;DHT22;4044;49.814;7.828;2023-06-14T01:53:48;12.10;82.60
7998;DHT22;4044;49.814;7.828;2023-06-14T01:56:14;12.00;82.80
7998;DHT22;4044;49.814;7.828;2023-06-14T01:58:40;11.90;84.30
7998;DHT22;4044;49.814;7.828;2023-06-14T02:01:05;11.90;84.10
7998;DHT22;4044;49.814;7.828;2023-06-14T02:03:32;11.90;86.00
7998;DHT22;4044;49.814;7.828;2023-06-14T02:05:58;11.80;86.30
7998;DHT22;4044;49.814;7.828;2023-06-14T02:08:23;12.00;85.60
7998;DHT22;4044;49.814;7.828;2023-06-14T02:10:49;11.80;84.90
7998;DHT22;4044;49.814;7.828;2023-06-14T02:13:15;11.80;84.20
7998;DHT22;4044;49.814;7.828;2023-06-14T02:15:41;11.80;84.30
7998;DHT22;4044;49.814;7.828;2023-06-14T02:18:09;11.80;84.30
7998;DHT22;4044;49.814;7.828;2023-06-14T02:20:35;11.80;84.10
7998;DHT22;4044;49.814;7.828;2023-06-14T02:23:01;11.80;84.20
7998;DHT22;4044;49.814;7.828;2023-06-14T02:25:27;11.80;84.70
7998;DHT22;4044;49.814;7.828;2023-06-14T02:27:55;11.70;84.80
7998;DHT22;4044;49.814;7.828;2023-06-14T02:30:21;11.70;85.30
7998;DHT22;4044;49.814;7.828;2023-06-14T02:32:46;11.60;83.90
7998;DHT22;4044;49.814;7.828;2023-06-14T02:35:14;11.60;85.20
7998;DHT22;4044;49.814;7.828;2023-06-14T02:37:40;11.60;84.10
7998;DHT22;4044;49.814;7.828;2023-06-14T02:40:06;11.60;86.10
7998;DHT22;4044;49.814;7.828;2023-06-14T02:42:31;11.60;85.20
7998;DHT22;4044;49.814;7.828;2023-06-14T02:44:57;11.60;85.20
7998;DHT22;4044;49.814;7.828;2023-06-14T02:47:22;11.50;84.50
7998;DHT22;4044;49.814;7.828;2023-06-14T02:49:48;11.50;84.60
7998;DHT22;4044;49.814;7.828;2023-06-14T02:52:14;11.50;83.80
7998;DHT22;4044;49.814;7.828;2023-06-14T02:54:39;11.40;85.10
7998;DHT22;4044;49.814;7.828;2023-06-14T02:57:05;11.40;85.20
7998;DHT22;4044;49.814;7.828;2023-06-14T02:59:33;11.30;86.00
7998;DHT22;4044;49.814;7.828;2023-06-14T03:01:59;11.30;84.40
7998;DHT22;4044;49.814;7.828;2023-06-14T03:04:24;11.30;86.70
7998;DHT22;4044;49.814;7.828;2023-06-14T03:06:51;11.30;86.90
7998;DHT22;4044;49.814;7.828;2023-06-14T03:09:17;11.30;86.70
7998;DHT22;4044;49.814;7.828;2023-06-14T03:11:42;11.30;87.20
7998;DHT22;4044;49.814;7.828;2023-06-14T03:14:08;11.30;86.80
7998;DHT22;4044;49.814;7.828;2023-06-14T03:16:34;11.30;86.70
7998;DHT22;4044;49.814;7.828;2023-06-14T03:19:00;11.30;86.50
7998;DHT22;4044;49.814;7.828;2023-06-14T03:21:25;11.20;86.20
7998;DHT22;4044;49.814;7.828;2023-06-14T03:23:51;11.10;86.90
7998;DHT22;4044;49.814;7.828;2023-06-14T03:26:18;11.10;86.20
7998;DHT22;4044;49.814;7.828;2023-06-14T03:28:44;11.10;84.90
7998;DHT22;4044;49.814;7.828;2023-06-14T03:31:13;11.10;86.10
7998;DHT22;4044;49.814;7.828;2023-06-14T03:33:40;11.10;86.60
7998;DHT22;4044;49.814;7.828;2023-06-14T03:36:06;11.00;87.10
7998;DHT22;4044;49.814;7.828;2023-06-14T03:38:32;11.00;87.10
7998;DHT22;4044;49.814;7.828;2023-06-14T03:40:57;11.00;86.10
7998;DHT22;4044;49.814;7.828;2023-06-14T03:43:23;11.00;87.00
7998;DHT22;4044;49.814;7.828;2023-06-14T03:45:48;11.10;87.10
7998;DHT22;4044;49.814;7.828;2023-06-14T03:48:14;11.10;87.30
7998;DHT22;4044;49.814;7.828;2023-06-14T03:50:40;11.10;87.00
7998;DHT22;4044;49.814;7.828;2023-06-14T03:53:08;11.10;87.30
7998;DHT22;4044;49.814;7.828;2023-06-14T03:55:34;11.10;86.50
7998;DHT22;4044;49.814;7.828;2023-06-14T03:58:00;11.20;86.90
7998;DHT22;4044;49.814;7.828;2023-06-14T04:00:26;11.20;87.80
7998;DHT22;4044;49.814;7.828;2023-06-14T04:02:52;11.20;87.90
7998;DHT22;4044;49.814;7.828;2023-06-14T04:05:18;11.20;87.70
7998;DHT22;4044;49.814;7.828;2023-06-14T04:07:47;11.10;87.20
7998;DHT22;4044;49.814;7.828;2023-06-14T04:10:14;11.10;89.00
7998;DHT22;4044;49.814;7.828;2023-06-14T04:12:41;11.10;88.10
7998;DHT22;4044;49.814;7.828;2023-06-14T04:15:07;11.10;89.00
7998;DHT22;4044;49.814;7.828;2023-06-14T04:17:34;11.10;88.20
7998;DHT22;4044;49.814;7.828;2023-06-14T04:20:00;11.10;89.60
7998;DHT22;4044;49.814;7.828;2023-06-14T04:22:26;11.20;89.40
7998;DHT22;4044;49.814;7.828;2023-06-14T04:24:54;11.20;90.10
7998;DHT22;4044;49.814;7.828;2023-06-14T04:27:22;11.20;89.70
7998;DHT22;4044;49.814;7.828;2023-06-14T04:29:51;11.20;90.20
7998;DHT22;4044;49.814;7.828;2023-06-14T04:32:18;11.20;90.90
7998;DHT22;4044;49.814;7.828;2023-06-14T04:34:44;11.20;90.20
7998;DHT22;4044;49.814;7.828;2023-06-14T04:37:09;11.20;90.90
7998;DHT22;4044;49.814;7.828;2023-06-14T04:39:35;11.20;90.10
7998;DHT22;4044;49.814;7.828;2023-06-14T04:42:00;11.30;90.90
7998;DHT22;4044;49.814;7.828;2023-06-14T04:44:28;11.30;91.00
7998;DHT22;4044;49.814;7.828;2023-06-14T04:46:57;11.40;90.30
7998;DHT22;4044;49.814;7.828;2023-06-14T04:49:24;11.50;90.60
7998;DHT22;4044;49.814;7.828;2023-06-14T04:51:50;11.60;91.30
7998;DHT22;4044;49.814;7.828;2023-06-14T04:54:23;11.70;91.20
7998;DHT22;4044;49.814;7.828;2023-06-14T04:56:51;11.90;91.80
7998;DHT22;4044;49.814;7.828;2023-06-14T04:59:16;12.10;91.40
7998;DHT22;4044;49.814;7.828;2023-06-14T05:01:42;12.20;91.10
7998;DHT22;4044;49.814;7.828;2023-06-14T05:04:13;12.30;91.40
7998;DHT22;4044;49.814;7.828;2023-06-14T05:06:38;12.40;91.40
7998;DHT22;4044;49.814;7.828;2023-06-14T05:09:04;12.50;90.30
7998;DHT22;4044;49.814;7.828;2023-06-14T05:11:30;12.60;88.20
7998;DHT22;4044;49.814;7.828;2023-06-14T05:13:55;12.70;90.00
7998;DHT22;4044;49.814;7.828;2023-06-14T05:16:23;12.80;90.20
7998;DHT22;4044;49.814;7.828;2023-06-14T05:18:50;12.90;90.50
7998;DHT22;4044;49.814;7.828;2023-06-14T05:21:17;13.00;88.90
7998;DHT22;4044;49.814;7.828;2023-06-14T05:23:44;13.10;89.60
7998;DHT22;4044;49.814;7.828;2023-06-14T05:26:10;13.20;87.70
7998;DHT22;4044;49.814;7.828;2023-06-14T05:28:36;13.30;88.70
7998;DHT22;4044;49.814;7.828;2023-06-14T05:31:01;13.40;89.60
7998;DHT22;4044;49.814;7.828;2023-06-14T05:33:27;13.50;88.80
7998;DHT22;4044;49.814;7.828;2023-06-14T05:35:53;13.60;88.70
7998;DHT22;4044;49.814;7.828;2023-06-14T05:38:18;13.60;89.40
7998;DHT22;4044;49.814;7.828;2023-06-14T05:40:44;13.80;87.10
7998;DHT22;4044;49.814;7.828;2023-06-14T05:43:10;13.90;88.20
7998;DHT22;4044;49.814;7.828;2023-06-14T05:45:35;13.90;88.70
7998;DHT22;4044;49.814;7.828;2023-06-14T05:48:01;14.10;87.40
7998;DHT22;4044;49.814;7.828;2023-06-14T05:50:26;14.20;88.30
7998;DHT22;4044;49.814;7.828;2023-06-14T05:52:53;14.30;86.40
7998;DHT22;4044;49.814;7.828;2023-06-14T05:55:19;14.30;89.00
7998;DHT22;4044;49.814;7.828;2023-06-14T05:57:45;14.50;87.10
7998;DHT22;4044;49.814;7.828;2023-06-14T06:00:11;14.60;87.30
7998;DHT22;4044;49.814;7.828;2023-06-14T06:02:40;14.70;86.70
7998;DHT22;4044;49.814;7.828;2023-06-14T06:05:06;14.90;87.10
7998;DHT22;4044;49.814;7.828;2023-06-14T06:07:32;15.00;86.90
7998;DHT22;4044;49.814;7.828;2023-06-14T06:09:57;15.10;86.50
7998;DHT22;4044;49.814;7.828;2023-06-14T06:12:23;15.30;86.30
7998;DHT22;4044;49.814;7.828;2023-06-14T06:14:48;15.40;87.80
7998;DHT22;4044;49.814;7.828;2023-06-14T06:17:14;15.60;86.30
7998;DHT22;4044;49.814;7.828;2023-06-14T06:19:39;15.80;87.70
7998;DHT22;4044;49.814;7.828;2023-06-14T06:22:05;15.90;86.80
7998;DHT22;4044;49.814;7.828;2023-06-14T06:24:31;16.10;86.50
7998;DHT22;4044;49.814;7.828;2023-06-14T06:26:57;16.30;84.00
7998;DHT22;4044;49.814;7.828;2023-06-14T06:29:22;16.50;82.40
7998;DHT22;4044;49.814;7.828;2023-06-14T06:31:48;16.80;77.50
7998;DHT22;4044;49.814;7.828;2023-06-14T06:34:14;17.00;77.90
7998;DHT22;4044;49.814;7.828;2023-06-14T06:36:39;17.20;76.90
7998;DHT22;4044;49.814;7.828;2023-06-14T06:39:04;17.40;75.70
7998;DHT22;4044;49.814;7.828;2023-06-14T06:41:38;17.60;75.20
7998;DHT22;4044;49.814;7.828;2023-06-14T06:44:05;17.80;73.40
7998;DHT22;4044;49.814;7.828;2023-06-14T06:46:32;17.90;71.90
7998;DHT22;4044;49.814;7.828;2023-06-14T06:48:57;18.10;72.80
7998;DHT22;4044;49.814;7.828;2023-06-14T06:51:23;18.30;72.10
7998;DHT22;4044;49.814;7.828;2023-06-14T06:53:55;18.40;71.60
7998;DHT22;4044;49.814;7.828;2023-06-14T06:56:21;18.50;70.90
7998;DHT22;4044;49.814;7.828;2023-06-14T06:58:49;18.70;70.50
7998;DHT22;4044;49.814;7.828;2023-06-14T07:01:14;18.80;69.80
7998;DHT22;4044;49.814;7.828;2023-06-14T07:03:41;18.90;70.20
7998;DHT22;4044;49.814;7.828;2023-06-14T07:06:06;19.10;70.00
7998;DHT22;4044;49.814;7.828;2023-06-14T07:08:32;19.20;69.00
7998;DHT22;4044;49.814;7.828;2023-06-14T07:10:57;19.40;69.10
7998;DHT22;4044;49.814;7.828;2023-06-14T07:13:23;19.50;66.30
7998;DHT22;4044;49.814;7.828;2023-06-14T07:15:48;19.60;65.40
7998;DHT22;4044;49.814;7.828;2023-06-14T07:18:14;19.70;65.40
7998;DHT22;4044;49.814;7.828;2023-06-14T07:20:39;19.80;65.40
7998;DHT22;4044;49.814;7.828;2023-06-14T07:23:05;19.90;63.80
7998;DHT22;4044;49.814;7.828;2023-06-14T07:25:31;20.00;63.60
7998;DHT22;4044;49.814;7.828;2023-06-14T07:27:57;20.10;62.50
7998;DHT22;4044;49.814;7.828;2023-06-14T07:30:22;20.10;62.40
7998;DHT22;4044;49.814;7.828;2023-06-14T07:32:51;20.20;61.60
7998;DHT22;4044;49.814;7.828;2023-06-14T07:35:18;20.30;61.40
7998;DHT22;4044;49.814;7.828;2023-06-14T07:37:43;20.30;60.80
7998;DHT22;4044;49.814;7.828;2023-06-14T07:40:09;20.30;61.40
7998;DHT22;4044;49.814;7.828;2023-06-14T07:42:35;20.40;60.70
7998;DHT22;4044;49.814;7.828;2023-06-14T07:45:02;20.50;61.50
7998;DHT22;4044;49.814;7.828;2023-06-14T07:47:28;20.50;60.30
7998;DHT22;4044;49.814;7.828;2023-06-14T07:49:53;20.60;61.50
7998;DHT22;4044;49.814;7.828;2023-06-14T07:52:19;20.60;61.50
7998;DHT22;4044;49.814;7.828;2023-06-14T07:54:45;20.70;61.70
7998;DHT22;4044;49.814;7.828;2023-06-14T07:57:10;20.80;60.70
7998;DHT22;4044;49.814;7.828;2023-06-14T07:59:36;20.80;59.70
7998;DHT22;4044;49.814;7.828;2023-06-14T08:02:01;20.90;59.20
7998;DHT22;4044;49.814;7.828;2023-06-14T08:04:27;20.90;59.80
7998;DHT22;4044;49.814;7.828;2023-06-14T08:06:53;20.90;61.00
7998;DHT22;4044;49.814;7.828;2023-06-14T08:09:19;21.00;59.60
7998;DHT22;4044;49.814;7.828;2023-06-14T08:11:45;21.00;60.00
7998;DHT22;4044;49.814;7.828;2023-06-14T08:14:10;21.10;60.30
7998;DHT22;4044;49.814;7.828;2023-06-14T08:16:36;21.20;60.30
7998;DHT22;4044;49.814;7.828;2023-06-14T08:19:02;21.20;59.90
7998;DHT22;4044;49.814;7.828;2023-06-14T08:21:28;21.30;59.30
7998;DHT22;4044;49.814;7.828;2023-06-14T08:23:57;21.40;59.90
7998;DHT22;4044;49.814;7.828;2023-06-14T08:26:22;21.40;58.90
7998;DHT22;4044;49.814;7.828;2023-06-14T08:28:48;21.50;60.00
7998;DHT22;4044;49.814;7.828;2023-06-14T08:31:14;21.60;59.10
7998;DHT22;4044;49.814;7.828;2023-06-14T08:33:39;21.60;58.50
7998;DHT22;4044;49.814;7.828;2023-06-14T08:36:08;21.70;58.70
7998;DHT22;4044;49.814;7.828;2023-06-14T08:38:33;21.70;57.90
7998;DHT22;4044;49.814;7.828;2023-06-14T08:41:01;21.80;59.00
7998;DHT22;4044;49.814;7.828;2023-06-14T08:43:27;21.90;57.40
7998;DHT22;4044;49.814;7.828;2023-06-14T08:45:58;21.90;56.60
7998;DHT22;4044;49.814;7.828;2023-06-14T08:48:26;22.00;57.50
7998;DHT22;4044;49.814;7.828;2023-06-14T08:50:55;22.10;57.40
7998;DHT22;4044;49.814;7.828;2023-06-14T08:53:28;22.10;56.80
7998;DHT22;4044;49.814;7.828;2023-06-14T08:55:54;22.20;57.50
7998;DHT22;4044;49.814;7.828;2023-06-14T08:58:21;22.20;56.70
7998;DHT22;4044;49.814;7.828;2023-06-14T09:00:49;22.40;57.20
7998;DHT22;4044;49.814;7.828;2023-06-14T09:03:18;22.40;56.30
7998;DHT22;4044;49.814;7.828;2023-06-14T09:05:46;22.50;56.10
7998;DHT22;4044;49.814;7.828;2023-06-14T09:08:12;22.60;55.20
7998;DHT22;4044;49.814;7.828;2023-06-14T09:10:39;22.60;53.80
7998;DHT22;4044;49.814;7.828;2023-06-14T09:13:06;22.70;54.80
7998;DHT22;4044;49.814;7.828;2023-06-14T09:15:32;22.80;55.60
7998;DHT22;4044;49.814;7.828;2023-06-14T09:17:57;22.80;55.40
7998;DHT22;4044;49.814;7.828;2023-06-14T09:20:24;22.80;54.70
7998;DHT22;4044;49.814;7.828;2023-06-14T09:22:50;22.80;54.50
7998;DHT22;4044;49.814;7.828;2023-06-14T09:25:16;23.00;55.00
7998;DHT22;4044;49.814;7.828;2023-06-14T09:27:42;23.00;54.90
7998;DHT22;4044;49.814;7.828;2023-06-14T09:30:09;23.00;54.30
7998;DHT22;4044;49.814;7.828;2023-06-14T09:32:39;23.10;54.40
7998;DHT22;4044;49.814;7.828;2023-06-14T09:35:09;23.20;53.90
7998;DHT22;4044;49.814;7.828;2023-06-14T09:37:35;23.30;53.50
7998;DHT22;4044;49.814;7.828;2023-06-14T09:40:01;23.40;53.40
7998;DHT22;4044;49.814;7.828;2023-06-14T09:42:26;23.40;52.80
7998;DHT22;4044;49.814;7.828;2023-06-14T09:44:55;23.50;54.40
7998;DHT22;4044;49.814;7.828;2023-06-14T09:47:21;23.60;52.80
7998;DHT22;4044;49.814;7.828;2023-06-14T09:49:48;23.80;54.30
7998;DHT22;4044;49.814;7.828;2023-06-14T09:52:18;23.70;52.70
7998;DHT22;4044;49.814;7.828;2023-06-14T09:54:45;23.80;54.20
7998;DHT22;4044;49.814;7.828;2023-06-14T09:57:20;23.90;53.50
7998;DHT22;4044;49.814;7.828;2023-06-14T09:59:46;23.90;52.90
7998;DHT22;4044;49.814;7.828;2023-06-14T10:02:26;24.00;52.90
7998;DHT22;4044;49.814;7.828;2023-06-14T10:05:07;24.20;52.90
7998;DHT22;4044;49.814;7.828;2023-06-14T10:07:44;24.30;53.40
7998;DHT22;4044;49.814;7.828;2023-06-14T10:10:13;24.40;52.90
7998;DHT22;4044;49.814;7.828;2023-06-14T10:12:39;24.40;53.20
7998;DHT22;4044;49.814;7.828;2023-06-14T10:15:08;24.50;52.50
7998;DHT22;4044;49.814;7.828;2023-06-14T10:17:46;24.60;53.80
7998;DHT22;4044;49.814;7.828;2023-06-14T10:20:30;24.60;52.80
7998;DHT22;4044;49.814;7.828;2023-06-14T10:23:03;24.60;53.10
7998;DHT22;4044;49.814;7.828;2023-06-14T10:25:33;24.80;52.40
7998;DHT22;4044;49.814;7.828;2023-06-14T10:28:18;24.90;51.80
7998;DHT22;4044;49.814;7.828;2023-06-14T10:33:33;25.30;51.90
7998;DHT22;4044;49.814;7.828;2023-06-14T10:36:26;25.30;51.40
7998;DHT22;4044;49.814;7.828;2023-06-14T10:41:29;25.40;51.50
7998;DHT22;4044;49.814;7.828;2023-06-14T10:46:59;25.60;51.60
7998;DHT22;4044;49.814;7.828;2023-06-14T10:49:55;25.80;51.20
7998;DHT22;4044;49.814;7.828;2023-06-14T10:52:26;26.00;51.40
7998;DHT22;4044;49.814;7.828;2023-06-14T10:57:26;26.20;50.90
7998;DHT22;4044;49.814;7.828;2023-06-14T10:59:52;26.30;51.00
7998;DHT22;4044;49.814;7.828;2023-06-14T11:05:04;26.20;50.50
7998;DHT22;4044;49.814;7.828;2023-06-14T11:10:38;26.60;49.80
7998;DHT22;4044;49.814;7.828;2023-06-14T11:13:05;26.70;49.60
7998;DHT22;4044;49.814;7.828;2023-06-14T11:15:32;26.70;50.00
7998;DHT22;4044;49.814;7.828;2023-06-14T11:18:00;26.70;49.40
7998;DHT22;4044;49.814;7.828;2023-06-14T11:20:27;26.60;50.00
7998;DHT22;4044;49.814;7.828;2023-06-14T11:22:53;26.80;50.30
7998;DHT22;4044;49.814;7.828;2023-06-14T11:25:19;27.10;50.10
7998;DHT22;4044;49.814;7.828;2023-06-14T11:27:45;27.30;49.80
7998;DHT22;4044;49.814;7.828;2023-06-14T11:30:12;27.50;49.10
7998;DHT22;4044;49.814;7.828;2023-06-14T11:32:38;27.50;49.60
7998;DHT22;4044;49.814;7.828;2023-06-14T11:35:05;27.70;48.60
7998;DHT22;4044;49.814;7.828;2023-06-14T11:37:31;27.90;48.20
7998;DHT22;4044;49.814;7.828;2023-06-14T11:40:03;27.90;48.50
7998;DHT22;4044;49.814;7.828;2023-06-14T11:42:33;28.20;48.60
7998;DHT22;4044;49.814;7.828;2023-06-14T11:44:59;28.30;48.00
7998;DHT22;4044;49.814;7.828;2023-06-14T11:47:30;28.50;47.60
7998;DHT22;4044;49.814;7.828;2023-06-14T11:49:58;28.90;47.00
7998;DHT22;4044;49.814;7.828;2023-06-14T11:52:24;29.20;46.50
7998;DHT22;4044;49.814;7.828;2023-06-14T11:54:49;29.90;46.90
7998;DHT22;4044;49.814;7.828;2023-06-14T11:57:17;31.50;44.60
7998;DHT22;4044;49.814;7.828;2023-06-14T11:59:44;33.10;42.60
7998;DHT22;4044;49.814;7.828;2023-06-14T12:02:13;33.70;41.00
7998;DHT22;4044;49.814;7.828;2023-06-14T12:04:41;34.70;40.30
7998;DHT22;4044;49.814;7.828;2023-06-14T12:07:10;35.70;39.10
7998;DHT22;4044;49.814;7.828;2023-06-14T12:12:35;36.80;37.20
7998;DHT22;4044;49.814;7.828;2023-06-14T12:15:03;36.80;36.20
7998;DHT22;4044;49.814;7.828;2023-06-14T12:17:32;36.90;36.50
7998;DHT22;4044;49.814;7.828;2023-06-14T12:19:58;37.30;36.00
7998;DHT22;4044;49.814;7.828;2023-06-14T12:22:24;37.60;36.50
7998;DHT22;4044;49.814;7.828;2023-06-14T12:24:49;37.70;35.40
7998;DHT22;4044;49.814;7.828;2023-06-14T12:27:15;37.70;35.00
7998;DHT22;4044;49.814;7.828;2023-06-14T12:29:44;37.60;34.50
7998;DHT22;4044;49.814;7.828;2023-06-14T12:32:10;37.70;34.60
7998;DHT22;4044;49.814;7.828;2023-06-14T12:34:36;38.10;35.80
7998;DHT22;4044;49.814;7.828;2023-06-14T12:37:02;38.80;34.20
7998;DHT22;4044;49.814;7.828;2023-06-14T12:39:29;38.90;33.70
7998;DHT22;4044;49.814;7.828;2023-06-14T12:41:57;39.00;33.60
7998;DHT22;4044;49.814;7.828;2023-06-14T12:44:22;39.20;33.00
7998;DHT22;4044;49.814;7.828;2023-06-14T12:46:48;38.80;33.10
7998;DHT22;4044;49.814;7.828;2023-06-14T12:49:13;38.90;33.80
7998;DHT22;4044;49.814;7.828;2023-06-14T12:51:39;39.30;33.70
7998;DHT22;4044;49.814;7.828;2023-06-14T12:54:06;39.60;33.20
7998;DHT22;4044;49.814;7.828;2023-06-14T12:56:32;39.70;33.40
7998;DHT22;4044;49.814;7.828;2023-06-14T12:58:58;40.30;33.20
7998;DHT22;4044;49.814;7.828;2023-06-14T13:01:24;40.80;32.30
7998;DHT22;4044;49.814;7.828;2023-06-14T13:03:50;41.00;31.70
7998;DHT22;4044;49.814;7.828;2023-06-14T13:06:17;40.40;30.80
7998;DHT22;4044;49.814;7.828;2023-06-14T13:08:42;40.80;31.80
7998;DHT22;4044;49.814;7.828;2023-06-14T13:11:08;41.10;30.80
7998;DHT22;4044;49.814;7.828;2023-06-14T13:13:34;40.40;30.80
7998;DHT22;4044;49.814;7.828;2023-06-14T13:15:59;40.70;31.20
7998;DHT22;4044;49.814;7.828;2023-06-14T13:18:25;40.50;30.40
7998;DHT22;4044;49.814;7.828;2023-06-14T13:20:51;40.60;30.60
7998;DHT22;4044;49.814;7.828;2023-06-14T13:23:16;40.20;30.50
7998;DHT22;4044;49.814;7.828;2023-06-14T13:25:42;40.40;30.90
7998;DHT22;4044;49.814;7.828;2023-06-14T13:28:08;40.60;30.30
7998;DHT22;4044;49.814;7.828;2023-06-14T13:30:33;40.70;29.80
7998;DHT22;4044;49.814;7.828;2023-06-14T13:32:59;40.80;29.80
7998;DHT22;4044;49.814;7.828;2023-06-14T13:35:25;40.90;29.40
7998;DHT22;4044;49.814;7.828;2023-06-14T13:37:51;41.00;29.30
7998;DHT22;4044;49.814;7.828;2023-06-14T13:40:17;41.10;29.50
7998;DHT22;4044;49.814;7.828;2023-06-14T13:42:42;41.50;29.00
7998;DHT22;4044;49.814;7.828;2023-06-14T13:45:09;42.20;29.80
7998;DHT22;4044;49.814;7.828;2023-06-14T13:47:35;42.50;29.60
7998;DHT22;4044;49.814;7.828;2023-06-14T13:50:01;42.70;29.10
7998;DHT22;4044;49.814;7.828;2023-06-14T13:52:28;43.10;30.00
7998;DHT22;4044;49.814;7.828;2023-06-14T13:54:53;43.50;28.70
7998;DHT22;4044;49.814;7.828;2023-06-14T13:57:19;42.70;28.70
7998;DHT22;4044;49.814;7.828;2023-06-14T13:59:45;42.70;29.20
7998;DHT22;4044;49.814;7.828;2023-06-14T14:02:11;43.30;29.30
7998;DHT22;4044;49.814;7.828;2023-06-14T14:04:37;43.90;28.30
7998;DHT22;4044;49.814;7.828;2023-06-14T14:07:06;43.30;28.60
7998;DHT22;4044;49.814;7.828;2023-06-14T14:09:32;43.40;29.20
7998;DHT22;4044;49.814;7.828;2023-06-14T14:11:58;42.80;28.20
7998;DHT22;4044;49.814;7.828;2023-06-14T14:14:24;40.50;30.20
7998;DHT22;4044;49.814;7.828;2023-06-14T14:16:50;41.30;30.30
7998;DHT22;4044;49.814;7.828;2023-06-14T14:19:20;41.50;30.20
7998;DHT22;4044;49.814;7.828;2023-06-14T14:21:46;40.20;30.70
7998;DHT22;4044;49.814;7.828;2023-06-14T14:24:12;38.70;31.70
7998;DHT22;4044;49.814;7.828;2023-06-14T14:26:37;37.40;32.50
7998;DHT22;4044;49.814;7.828;2023-06-14T14:29:03;36.70;33.40
7998;DHT22;4044;49.814;7.828;2023-06-14T14:31:29;38.00;33.60
7998;DHT22;4044;49.814;7.828;2023-06-14T14:33:55;38.60;32.20
7998;DHT22;4044;49.814;7.828;2023-06-14T14:36:20;38.50;32.20
7998;DHT22;4044;49.814;7.828;2023-06-14T14:38:46;38.70;32.10
7998;DHT22;4044;49.814;7.828;2023-06-14T14:41:12;39.10;31.80
7998;DHT22;4044;49.814;7.828;2023-06-14T14:43:39;38.90;32.10
7998;DHT22;4044;49.814;7.828;2023-06-14T14:46:04;38.50;32.50
7998;DHT22;4044;49.814;7.828;2023-06-14T14:48:30;37.60;32.50
7998;DHT22;4044;49.814;7.828;2023-06-14T14:50:55;37.60;32.70
7998;DHT22;4044;49.814;7.828;2023-06-14T14:53:21;38.60;32.00
7998;DHT22;4044;49.814;7.828;2023-06-14T14:55:47;39.50;31.40
7998;DHT22;4044;49.814;7.828;2023-06-14T14:58:13;39.90;31.30
7998;DHT22;4044;49.814;7.828;2023-06-14T15:00:42;40.60;30.80
7998;DHT22;4044;49.814;7.828;2023-06-14T15:03:08;41.50;30.60
7998;DHT22;4044;49.814;7.828;2023-06-14T15:05:33;42.50;29.90
7998;DHT22;4044;49.814;7.828;2023-06-14T15:07:59;43.50;29.60
7998;DHT22;4044;49.814;7.828;2023-06-14T15:10:24;41.80;29.50
7998;DHT22;4044;49.814;7.828;2023-06-14T15:12:50;39.40;30.40
7998;DHT22;4044;49.814;7.828;2023-06-14T15:15:15;37.40;32.00
7998;DHT22;4044;49.814;7.828;2023-06-14T15:17:41;37.80;32.40
7998;DHT22;4044;49.814;7.828;2023-06-14T15:20:07;39.00;30.80
7998;DHT22;4044;49.814;7.828;2023-06-14T15:22:32;39.60;30.60
7998;DHT22;4044;49.814;7.828;2023-06-14T15:24:58;40.50;30.40
7998;DHT22;4044;49.814;7.828;2023-06-14T15:27:24;41.00;29.80
7998;DHT22;4044;49.814;7.828;2023-06-14T15:29:50;41.50;29.60
7998;DHT22;4044;49.814;7.828;2023-06-14T15:32:15;41.90;29.40
7998;DHT22;4044;49.814;7.828;2023-06-14T15:34:41;42.40;29.00
7998;DHT22;4044;49.814;7.828;2023-06-14T15:37:07;42.90;28.70
7998;DHT22;4044;49.814;7.828;2023-06-14T15:39:32;43.40;28.50
7998;DHT22;4044;49.814;7.828;2023-06-14T15:41:59;43.60;28.50
7998;DHT22;4044;49.814;7.828;2023-06-14T15:44:25;43.20;28.40
7998;DHT22;4044;49.814;7.828;2023-06-14T15:46:51;41.10;28.90
7998;DHT22;4044;49.814;7.828;2023-06-14T15:49:16;39.00;29.70
7998;DHT22;4044;49.814;7.828;2023-06-14T15:51:42;37.00;30.50
7998;DHT22;4044;49.814;7.828;2023-06-14T15:54:07;35.60;31.40
7998;DHT22;4044;49.814;7.828;2023-06-14T15:56:33;35.70;32.10
7998;DHT22;4044;49.814;7.828;2023-06-14T15:58:59;36.80;31.20
7998;DHT22;4044;49.814;7.828;2023-06-14T16:01:26;37.80;31.00
7998;DHT22;4044;49.814;7.828;2023-06-14T16:03:51;38.90;30.00
7998;DHT22;4044;49.814;7.828;2023-06-14T16:06:17;39.70;29.70
7998;DHT22;4044;49.814;7.828;2023-06-14T16:08:44;40.40;29.30
7998;DHT22;4044;49.814;7.828;2023-06-14T16:11:10;41.10;29.20
7998;DHT22;4044;49.814;7.828;2023-06-14T16:13:36;41.20;29.00
7998;DHT22;4044;49.814;7.828;2023-06-14T16:16:02;41.60;28.80
7998;DHT22;4044;49.814;7.828;2023-06-14T16:18:27;42.40;28.50
7998;DHT22;4044;49.814;7.828;2023-06-14T16:20:53;42.00;28.70